Janauba, Brazil
Current Conditions -  °F | °C
As of 7:00 PM on Friday 19 Dec 2014 (Local Time) from SBMK Reporting Station
Rain Showers Rain Showers  
Wind Chill: 66°   Ceiling: Unl
Heat Index: 66°   Visibility: 6mi
Dew Point: 64°   Wind: 8mph
Humidity: 94%   Direction: 350°N
Pressure: 29.83"   Gusts: NA
Location:  15.8°S, 43.31°W
Report Text: SBMK 192100Z 35007KT 9999 VCSH FEW045 SCT050TCU 19/18 Q1010
Loading
Personal Weather Stations






























Interactive Weather Map New forecast layout! Learn more

10-Day Weather Forecast

Advertisements
Track Severe Weather on mobile